EDAC/ADC METAR and TAF weather

Enter ICAO airport designator
Station Type Date Time Source
EDAC METAR 2019/02/23 02:20 UTC NOAA

EDAC 230220Z AUTO VRB02KT 9999 // OVC210/// M03/M05 Q1042


Station Type Date Time Source
EDAC Decoded METAR 2019/02/23 02:20 UTC NOAA

Altenburg Nobitz, Germany (EDAC) 50-58N 012-30E
Feb 22, 2019 - 09:20 PM EST / 2019.02.23 0220 UTC
Wind: Variable at 2 MPH (2 KT):0
Visibility: greater than 7 mile(s):0
Sky conditions: overcast
Temperature: 26 F (-3 C)
Dew Point: 23 F (-5 C)
Relative Humidity: 86%
Pressure (altimeter): 30.77 in. Hg (1042 hPa)
ob: EDAC 230220Z AUTO VRB02KT 9999 // OVC210/// M03/M05 Q1042
cycle: 2

Station Type Date Time Source
EDAC TAF UTC NOAA

Error!


Example: see airport list